createdAt,value
2022-08-17T00:00:42.878Z,29.63
2022-08-17T00:02:55.698Z,30.30
2022-08-17T00:04:57.135Z,30.13
2022-08-17T00:06:58.656Z,29.58
2022-08-17T00:09:01.177Z,28.55
2022-08-17T00:11:06.063Z,30.92
2022-08-17T00:13:18.302Z,30.35
2022-08-17T00:15:21.340Z,30.02
2022-08-17T00:19:25.181Z,30.30
2022-08-17T00:21:27.178Z,31.52
2022-08-17T00:23:49.359Z,30.83
2022-08-17T00:27:53.571Z,31.00
2022-08-17T00:29:55.432Z,32.50
2022-08-17T00:31:56.907Z,32.70
2022-08-17T00:33:59.312Z,31.58
2022-08-17T00:36:01.567Z,32.10
2022-08-17T00:38:04.935Z,30.70
2022-08-17T00:40:10.032Z,33.17
2022-08-17T00:42:15.286Z,33.35
2022-08-17T00:44:16.867Z,32.03
2022-08-17T00:46:28.311Z,32.28
2022-08-17T00:48:30.747Z,33.22
2022-08-17T00:50:32.585Z,32.10
2022-08-17T00:52:37.349Z,34.22
2022-08-17T00:54:42.077Z,32.33
2022-08-17T00:56:55.047Z,33.53
2022-08-17T00:58:57.000Z,33.78
2022-08-17T01:01:01.501Z,33.22
2022-08-17T01:03:10.090Z,32.70
2022-08-17T01:05:19.024Z,33.97
2022-08-17T01:07:23.361Z,32.53
2022-08-17T01:09:25.361Z,34.75
2022-08-17T01:11:27.744Z,33.75
2022-08-17T01:13:39.791Z,33.80
2022-08-17T01:15:46.415Z,33.10
2022-08-17T01:17:48.189Z,34.03
2022-08-17T01:19:49.930Z,34.35
2022-08-17T01:22:09.023Z,34.70
2022-08-17T01:24:10.607Z,34.72
2022-08-17T01:26:12.105Z,34.25
2022-08-17T01:28:33.237Z,34.35
2022-08-17T01:30:58.596Z,35.38
2022-08-17T01:32:56.733Z,35.53
2022-08-17T01:35:00.575Z,35.95
2022-08-17T01:37:02.210Z,34.72
2022-08-17T01:39:05.262Z,36.08
2022-08-17T01:41:10.663Z,34.85
2022-08-17T01:43:38.977Z,35.50
2022-08-17T01:45:45.389Z,33.85
2022-08-17T01:47:46.868Z,34.88
2022-08-17T01:49:48.545Z,34.45
2022-08-17T01:51:50.057Z,36.05
2022-08-17T01:53:53.941Z,34.88
2022-08-17T01:55:57.652Z,35.65
2022-08-17T01:57:59.677Z,36.22
2022-08-17T02:00:05.484Z,35.10
2022-08-17T02:02:07.447Z,35.95
2022-08-17T02:04:09.382Z,35.88
2022-08-17T02:06:26.940Z,36.65
2022-08-17T02:08:38.865Z,34.33
2022-08-17T02:10:46.658Z,36.40
2022-08-17T02:12:50.467Z,37.65
2022-08-17T02:14:52.679Z,36.90
2022-08-17T02:16:54.403Z,35.92
2022-08-17T02:18:55.892Z,37.17
2022-08-17T02:20:58.205Z,37.80
2022-08-17T02:23:01.267Z,39.75
2022-08-17T02:25:03.321Z,35.03
2022-08-17T02:27:05.880Z,33.40
2022-08-17T02:29:07.443Z,32.45
2022-08-17T02:31:10.247Z,32.28
2022-08-17T02:35:13.411Z,31.35
2022-08-17T02:37:17.920Z,30.52
2022-08-17T02:39:19.540Z,31.35
2022-08-17T02:41:20.951Z,32.05
2022-08-17T02:43:22.619Z,32.17
2022-08-17T02:45:24.526Z,32.20
2022-08-17T02:47:26.749Z,32.33
2022-08-17T02:49:28.327Z,33.10
2022-08-17T02:51:29.945Z,30.42
2022-08-17T02:53:35.600Z,30.00
2022-08-17T02:55:38.725Z,29.63
2022-08-17T02:59:45.492Z,30.95
2022-08-17T03:01:50.186Z,31.58
2022-08-17T03:03:51.788Z,29.95
2022-08-17T03:05:53.256Z,31.92
2022-08-17T03:07:55.035Z,31.10
2022-08-17T03:09:56.628Z,32.30
2022-08-17T03:12:08.634Z,29.90
2022-08-17T03:14:10.044Z,30.27
2022-08-17T03:16:11.667Z,29.17
2022-08-17T03:18:19.352Z,31.67
2022-08-17T03:20:28.800Z,32.03
2022-08-17T03:22:37.161Z,31.55
2022-08-17T03:24:40.028Z,31.58
2022-08-17T03:26:41.488Z,29.13
2022-08-17T03:28:43.169Z,30.67
2022-08-17T03:30:44.732Z,31.85
2022-08-17T03:32:47.610Z,31.73
2022-08-17T03:34:49.224Z,31.90
2022-08-17T03:36:50.647Z,31.40
2022-08-17T03:38:52.192Z,31.17
2022-08-17T03:40:56.648Z,31.77
2022-08-17T03:43:08.073Z,32.58
2022-08-17T03:45:15.584Z,31.83
2022-08-17T03:47:36.254Z,31.52
2022-08-17T03:49:56.498Z,32.92
2022-08-17T03:52:16.906Z,32.20
2022-08-17T03:54:37.199Z,32.60
2022-08-17T03:56:44.948Z,31.63
2022-08-17T03:58:46.834Z,32.50
2022-08-17T04:00:49.229Z,31.17
2022-08-17T04:02:50.807Z,30.60
2022-08-17T04:04:52.697Z,31.45
2022-08-17T04:06:54.586Z,28.63
2022-08-17T04:08:56.022Z,29.52
2022-08-17T04:10:58.050Z,28.88
2022-08-17T04:12:59.746Z,29.00
2022-08-17T04:15:01.217Z,28.50
2022-08-17T04:17:02.776Z,26.45
2022-08-17T04:19:05.280Z,25.73
2022-08-17T04:21:08.759Z,24.85
2022-08-17T04:23:11.800Z,24.88
2022-08-17T04:25:15.884Z,24.85
2022-08-17T04:27:17.342Z,25.35
2022-08-17T04:29:19.073Z,24.95
2022-08-17T04:31:20.715Z,24.57
2022-08-17T04:33:24.103Z,23.90
2022-08-17T04:35:27.196Z,23.30
2022-08-17T04:37:28.875Z,22.05
2022-08-17T04:39:33.796Z,20.73
2022-08-17T04:41:53.920Z,20.50
2022-08-17T04:43:58.234Z,20.35
2022-08-17T04:46:01.321Z,19.45
2022-08-17T04:48:02.848Z,18.35
2022-08-17T04:50:04.601Z,18.45
2022-08-17T04:52:06.113Z,17.45
2022-08-17T04:54:09.955Z,16.70
2022-08-17T04:56:16.213Z,16.60
2022-08-17T04:58:19.483Z,15.70
2022-08-17T05:00:21.087Z,15.65
2022-08-17T05:02:22.733Z,14.53
2022-08-17T05:04:34.474Z,15.13
2022-08-17T05:06:37.174Z,14.30
2022-08-17T05:08:39.405Z,14.80
2022-08-17T05:10:45.281Z,13.68
2022-08-17T05:12:48.849Z,14.40
2022-08-17T05:14:50.582Z,13.15
2022-08-17T05:16:51.994Z,13.05
2022-08-17T05:18:53.445Z,13.43
2022-08-17T05:20:55.924Z,13.53
2022-08-17T05:22:59.177Z,12.20
2022-08-17T05:25:01.811Z,13.15
2022-08-17T05:27:06.698Z,13.32
2022-08-17T05:29:08.382Z,13.32
2022-08-17T05:31:10.951Z,12.15
2022-08-17T05:33:14.281Z,12.73
2022-08-17T05:35:15.746Z,11.98
2022-08-17T05:37:17.302Z,12.87
2022-08-17T05:39:19.188Z,12.40
2022-08-17T05:41:20.638Z,12.27
2022-08-17T05:43:26.516Z,12.68
2022-08-17T05:45:54.273Z,11.65
2022-08-17T05:47:50.044Z,12.10
2022-08-17T05:49:51.676Z,12.33
2022-08-17T05:52:01.066Z,12.25
2022-08-17T05:54:21.945Z,12.32
2022-08-17T05:56:31.696Z,13.25
2022-08-17T05:58:40.915Z,12.00
2022-08-17T06:00:47.873Z,11.85
2022-08-17T06:03:08.320Z,12.27
2022-08-17T06:05:12.887Z,11.30
2022-08-17T06:07:28.678Z,12.30
2022-08-17T06:09:34.089Z,11.18
2022-08-17T06:11:54.004Z,11.40
2022-08-17T06:14:13.450Z,11.95
2022-08-17T06:16:33.628Z,29.67
2022-08-17T06:18:45.640Z,11.45
2022-08-17T06:20:50.204Z,11.77
2022-08-17T06:22:54.183Z,12.52
2022-08-17T06:25:04.635Z,11.20
2022-08-17T06:27:21.714Z,12.10
2022-08-17T06:29:35.324Z,10.18
2022-08-17T06:31:38.491Z,12.80
2022-08-17T06:33:40.167Z,10.60
2022-08-17T06:35:48.158Z,10.73
2022-08-17T06:37:49.710Z,11.57
2022-08-17T06:40:12.302Z,10.32
2022-08-17T06:43:04.982Z,11.93
2022-08-17T06:44:49.901Z,11.50
2022-08-17T06:46:58.074Z,10.57
2022-08-17T06:48:59.559Z,10.40
2022-08-17T06:51:08.161Z,9.15
2022-08-17T06:53:26.165Z,10.38
2022-08-17T06:55:46.701Z,9.07
2022-08-17T06:57:51.950Z,9.10
2022-08-17T06:59:56.707Z,10.27
2022-08-17T07:02:05.212Z,9.20
2022-08-17T07:04:11.944Z,8.48
2022-08-17T07:06:22.168Z,8.80
2022-08-17T07:08:35.150Z,9.20
2022-08-17T07:10:47.941Z,10.02
2022-08-17T07:12:51.021Z,37.97
2022-08-17T07:14:58.442Z,21.13
2022-08-17T07:17:02.705Z,10.50
2022-08-17T07:19:05.023Z,10.77
2022-08-17T07:21:26.720Z,10.65
2022-08-17T07:23:37.785Z,11.65
2022-08-17T07:25:39.442Z,11.23
2022-08-17T07:27:42.878Z,10.68
2022-08-17T07:29:48.029Z,11.40
2022-08-17T07:31:49.550Z,11.65
2022-08-17T07:34:02.207Z,10.90
2022-08-17T07:36:04.016Z,11.55
2022-08-17T07:38:27.385Z,11.07
2022-08-17T07:40:49.458Z,10.75
2022-08-17T07:43:11.492Z,10.77
2022-08-17T07:45:42.481Z,11.02
2022-08-17T07:48:07.727Z,11.35
2022-08-17T07:50:29.800Z,10.15
2022-08-17T07:52:50.552Z,10.43
2022-08-17T07:54:54.538Z,9.95
2022-08-17T07:57:15.153Z,10.68
2022-08-17T07:59:20.476Z,10.13
2022-08-17T08:01:25.248Z,10.80
2022-08-17T08:03:42.447Z,10.80
2022-08-17T08:05:50.092Z,10.93
2022-08-17T08:07:55.032Z,10.30
2022-08-17T08:09:59.691Z,10.63
2022-08-17T08:12:21.556Z,10.50
2022-08-17T08:14:31.228Z,10.80
2022-08-17T08:16:33.307Z,9.75
2022-08-17T08:18:53.572Z,11.32
2022-08-17T08:21:08.926Z,10.60
2022-08-17T08:23:18.922Z,10.38
2022-08-17T08:25:28.814Z,11.95
2022-08-17T08:27:38.897Z,11.20
2022-08-17T08:29:59.219Z,10.90
2022-08-17T08:32:22.033Z,11.48
2022-08-17T08:37:16.494Z,11.43
2022-08-17T08:39:21.816Z,11.38
2022-08-17T08:41:34.289Z,11.15
2022-08-17T08:43:52.826Z,11.57
2022-08-17T08:46:00.292Z,11.10
2022-08-17T08:48:58.112Z,11.95
2022-08-17T08:50:38.518Z,14.25
2022-08-17T08:52:52.561Z,10.00
2022-08-17T08:54:58.847Z,9.93
2022-08-17T08:57:34.121Z,9.75
2022-08-17T08:59:57.652Z,9.65
2022-08-17T09:02:12.287Z,10.20
2022-08-17T09:04:25.096Z,10.10
2022-08-17T09:06:43.521Z,10.35
2022-08-17T09:08:53.808Z,9.18
2022-08-17T09:11:04.595Z,9.52
2022-08-17T09:13:22.386Z,9.73
2022-08-17T09:15:27.554Z,9.25
2022-08-17T09:17:30.129Z,10.38
2022-08-17T09:21:47.995Z,10.13
2022-08-17T09:23:59.800Z,10.00
2022-08-17T09:26:01.188Z,9.77
2022-08-17T09:28:07.062Z,10.15
2022-08-17T09:30:09.841Z,9.85
2022-08-17T09:32:17.565Z,9.52
2022-08-17T09:34:33.065Z,9.68
2022-08-17T09:36:40.670Z,9.85
2022-08-17T09:38:54.645Z,8.80
2022-08-17T09:41:11.536Z,9.57
2022-08-17T09:43:27.573Z,10.10
2022-08-17T09:45:29.094Z,9.70
2022-08-17T09:47:33.257Z,9.75
2022-08-17T09:49:35.083Z,9.60
2022-08-17T09:51:40.135Z,9.73
2022-08-17T09:53:44.560Z,9.52
2022-08-17T09:56:05.538Z,9.48
2022-08-17T09:58:13.901Z,9.68
2022-08-17T10:00:19.049Z,9.65
2022-08-17T10:02:34.940Z,9.15
2022-08-17T10:04:47.775Z,9.45
2022-08-17T10:09:06.391Z,10.23
2022-08-17T10:11:50.399Z,10.18
2022-08-17T10:14:37.015Z,9.85
2022-08-17T10:16:37.222Z,10.57
2022-08-17T10:18:45.869Z,10.40
2022-08-17T10:20:50.314Z,11.32
2022-08-17T10:23:16.544Z,10.15
2022-08-17T10:25:53.946Z,10.75
2022-08-17T10:27:58.889Z,10.82
2022-08-17T10:30:04.140Z,10.13
2022-08-17T10:32:09.185Z,10.05
2022-08-17T10:34:26.316Z,10.65
2022-08-17T10:36:47.373Z,10.48
2022-08-17T10:39:10.889Z,9.82
2022-08-17T10:41:21.433Z,10.52
2022-08-17T10:43:34.048Z,10.25
2022-08-17T10:45:37.924Z,9.43
2022-08-17T10:47:56.032Z,9.63
2022-08-17T10:50:18.744Z,9.23
2022-08-17T10:52:20.861Z,8.70
2022-08-17T10:54:25.839Z,8.95
2022-08-17T10:56:41.167Z,8.93
2022-08-17T10:58:47.451Z,10.40
2022-08-17T11:00:55.597Z,10.00
2022-08-17T11:02:57.498Z,9.65
2022-08-17T11:05:08.714Z,9.93
2022-08-17T11:07:32.464Z,9.68
2022-08-17T11:10:00.600Z,10.20
2022-08-17T11:12:12.065Z,10.68
2022-08-17T11:14:23.855Z,10.82
2022-08-17T11:16:50.218Z,10.50
2022-08-17T11:18:52.604Z,10.10
2022-08-17T11:23:13.247Z,10.70
2022-08-17T11:25:26.060Z,10.40
2022-08-17T11:27:32.719Z,10.82
2022-08-17T11:29:37.401Z,10.65
2022-08-17T11:31:44.178Z,10.38
2022-08-17T11:33:51.681Z,9.90
2022-08-17T11:35:55.229Z,10.65
2022-08-17T11:38:06.955Z,10.45
2022-08-17T11:40:13.503Z,10.80
2022-08-17T11:42:32.603Z,10.43
2022-08-17T11:45:06.951Z,9.60
2022-08-17T11:47:30.564Z,9.30
2022-08-17T11:50:00.426Z,10.00
2022-08-17T11:52:02.291Z,9.95
2022-08-17T11:54:31.626Z,9.23
2022-08-17T11:56:34.138Z,9.30
2022-08-17T11:58:37.336Z,9.95
2022-08-17T12:00:45.182Z,9.45
2022-08-17T12:02:49.028Z,10.13
2022-08-17T12:05:09.704Z,9.00
2022-08-17T12:07:17.954Z,9.82
2022-08-17T12:09:24.817Z,9.20
2022-08-17T12:12:10.988Z,13.35
2022-08-17T12:13:56.060Z,9.57
2022-08-17T12:15:58.556Z,9.88
2022-08-17T12:20:16.219Z,9.48
2022-08-17T12:22:25.331Z,9.80
2022-08-17T12:24:29.159Z,9.77
2022-08-17T12:26:33.406Z,10.38
2022-08-17T12:28:36.885Z,9.48
2022-08-17T12:30:38.687Z,10.13
2022-08-17T12:32:40.741Z,11.15
2022-08-17T12:34:43.448Z,10.57
2022-08-17T12:36:46.008Z,10.00
2022-08-17T12:39:14.629Z,9.50
2022-08-17T12:41:29.651Z,9.98
2022-08-17T12:43:33.598Z,10.10
2022-08-17T12:45:39.412Z,10.48
2022-08-17T12:47:41.369Z,10.45
2022-08-17T12:49:43.995Z,10.75
2022-08-17T12:51:46.912Z,10.95
2022-08-17T12:53:52.761Z,10.50
2022-08-17T12:55:57.644Z,10.25
2022-08-17T12:58:00.814Z,10.68
2022-08-17T13:00:10.154Z,10.65
2022-08-17T13:02:19.409Z,10.68
2022-08-17T13:04:21.973Z,10.85
2022-08-17T13:06:28.694Z,10.80
2022-08-17T13:08:31.739Z,10.35
2022-08-17T13:10:35.452Z,10.82
2022-08-17T13:12:38.748Z,11.82
2022-08-17T13:14:45.071Z,10.90
2022-08-17T13:17:00.638Z,10.07
2022-08-17T13:19:15.919Z,9.75
2022-08-17T13:21:22.321Z,9.82
2022-08-17T13:23:24.960Z,9.90
2022-08-17T13:25:27.215Z,9.80
2022-08-17T13:27:29.750Z,12.18
2022-08-17T13:29:31.575Z,11.13
2022-08-17T13:31:44.085Z,9.02
2022-08-17T13:34:20.409Z,9.98
2022-08-17T13:36:30.215Z,9.73
2022-08-17T13:38:41.029Z,9.82
2022-08-17T13:40:52.149Z,9.35
2022-08-17T13:42:55.399Z,10.43
2022-08-17T13:44:57.563Z,10.30
2022-08-17T13:46:59.936Z,9.70
2022-08-17T13:49:06.345Z,10.35
2022-08-17T13:51:24.646Z,9.90
2022-08-17T13:53:33.237Z,11.93
2022-08-17T13:55:34.899Z,12.45
2022-08-17T13:57:36.852Z,9.73
2022-08-17T13:59:54.159Z,10.25
2022-08-17T14:01:57.482Z,9.88
2022-08-17T14:04:00.086Z,10.23
2022-08-17T14:06:04.655Z,10.07
2022-08-17T14:08:07.036Z,9.85
2022-08-17T14:10:13.306Z,11.85
2022-08-17T14:12:16.791Z,10.18
2022-08-17T14:14:18.787Z,10.77
2022-08-17T14:16:20.607Z,10.02
2022-08-17T14:18:34.304Z,10.10
2022-08-17T14:20:44.135Z,9.50
2022-08-17T14:22:49.539Z,10.35
2022-08-17T14:24:51.406Z,10.23
2022-08-17T14:26:53.173Z,10.90
2022-08-17T14:28:56.871Z,9.43
2022-08-17T14:31:03.180Z,9.30
2022-08-17T14:33:05.854Z,10.13
2022-08-17T14:35:09.375Z,10.07
2022-08-17T14:37:11.174Z,10.52
2022-08-17T14:39:13.295Z,10.30
2022-08-17T14:41:18.756Z,10.48
2022-08-17T14:43:23.502Z,10.80
2022-08-17T14:45:29.830Z,11.32
2022-08-17T14:47:35.517Z,10.70
2022-08-17T14:49:36.952Z,11.32
2022-08-17T14:51:41.632Z,11.18
2022-08-17T14:53:45.814Z,12.65
2022-08-17T14:55:49.496Z,11.30
2022-08-17T14:57:51.646Z,12.27
2022-08-17T14:59:55.159Z,11.27
2022-08-17T15:01:57.567Z,11.90
2022-08-17T15:04:00.293Z,11.52
2022-08-17T15:06:02.730Z,12.15
2022-08-17T15:08:05.432Z,11.55
2022-08-17T15:10:08.920Z,11.13
2022-08-17T15:12:15.329Z,11.80
2022-08-17T15:14:16.908Z,12.20
2022-08-17T15:16:20.013Z,11.67
2022-08-17T15:18:21.557Z,11.82
2022-08-17T15:20:24.858Z,11.93
2022-08-17T15:22:27.288Z,11.10
2022-08-17T15:24:31.181Z,12.27
2022-08-17T15:26:32.704Z,13.40
2022-08-17T15:28:34.366Z,12.10
2022-08-17T15:30:36.005Z,11.60
2022-08-17T15:32:39.251Z,11.95
2022-08-17T15:34:40.908Z,11.82
2022-08-17T15:36:49.350Z,12.05
2022-08-17T15:38:51.413Z,11.40
2022-08-17T15:40:53.211Z,13.10
2022-08-17T15:42:54.787Z,12.30
2022-08-17T15:44:56.271Z,13.43
2022-08-17T15:46:58.065Z,11.80
2022-08-17T15:49:00.321Z,11.40
2022-08-17T15:51:01.781Z,12.35
2022-08-17T15:53:04.706Z,11.90
2022-08-17T15:55:08.872Z,12.38
2022-08-17T15:57:10.363Z,12.73
2022-08-17T15:59:12.207Z,12.93
2022-08-17T16:01:18.328Z,11.57
2022-08-17T16:03:58.422Z,12.23
2022-08-17T16:05:42.551Z,12.30
2022-08-17T16:07:44.169Z,11.95
2022-08-17T16:09:45.657Z,12.43
2022-08-17T16:11:53.813Z,12.50
2022-08-17T16:13:57.443Z,12.50
2022-08-17T16:15:58.900Z,13.18
2022-08-17T16:18:00.581Z,12.88
2022-08-17T16:20:02.199Z,14.38
2022-08-17T16:22:04.417Z,13.80
2022-08-17T16:24:12.716Z,13.73
2022-08-17T16:26:15.946Z,13.50
2022-08-17T16:28:17.416Z,13.05
2022-08-17T16:30:20.623Z,13.93
2022-08-17T16:32:31.375Z,14.20
2022-08-17T16:34:34.205Z,14.05
2022-08-17T16:36:37.362Z,13.63
2022-08-17T16:38:38.802Z,14.15
2022-08-17T16:40:41.371Z,13.50
2022-08-17T16:42:43.292Z,14.85
2022-08-17T16:44:44.715Z,14.55
2022-08-17T16:46:47.048Z,14.30
2022-08-17T16:48:49.169Z,13.80
2022-08-17T16:51:03.461Z,14.00
2022-08-17T16:53:11.531Z,13.90
2022-08-17T16:55:18.577Z,14.35
2022-08-17T16:57:20.339Z,14.82
2022-08-17T16:59:39.394Z,15.05
2022-08-17T17:01:49.930Z,17.08
2022-08-17T17:03:58.049Z,15.82
2022-08-17T17:06:07.294Z,15.55
2022-08-17T17:08:14.938Z,14.90
2022-08-17T17:10:18.810Z,14.27
2022-08-17T17:13:00.923Z,14.82
2022-08-17T17:14:46.479Z,16.60
2022-08-17T17:16:52.656Z,15.68
2022-08-17T17:19:12.924Z,14.77
2022-08-17T17:21:16.921Z,14.10
2022-08-17T17:23:27.719Z,14.90
2022-08-17T17:25:55.643Z,15.98
2022-08-17T17:28:15.931Z,15.80
2022-08-17T17:30:24.092Z,16.63
2022-08-17T17:32:38.759Z,16.92
2022-08-17T17:34:41.912Z,15.40
2022-08-17T17:36:49.899Z,15.55
2022-08-17T17:38:55.469Z,16.13
2022-08-17T17:41:02.526Z,15.57
2022-08-17T17:43:34.899Z,15.63
2022-08-17T17:45:42.463Z,15.77
2022-08-17T17:47:44.604Z,16.38
2022-08-17T17:49:48.618Z,17.05
2022-08-17T17:52:10.116Z,17.05
2022-08-17T17:54:34.139Z,16.98
2022-08-17T17:56:45.189Z,16.40
2022-08-17T17:58:52.734Z,16.95
2022-08-17T18:01:15.245Z,17.38
2022-08-17T18:03:32.776Z,17.58
2022-08-17T18:05:53.248Z,17.60
2022-08-17T18:08:09.235Z,18.88
2022-08-17T18:10:19.690Z,18.08
2022-08-17T18:12:40.289Z,17.77
2022-08-17T18:14:47.261Z,18.55
2022-08-17T18:16:53.521Z,18.50
2022-08-17T18:18:57.500Z,18.95
2022-08-17T18:21:03.903Z,19.48
2022-08-17T18:23:05.928Z,19.63
2022-08-17T18:25:27.366Z,19.23
2022-08-17T18:27:37.481Z,18.63
2022-08-17T18:29:45.783Z,19.23
2022-08-17T18:31:47.377Z,19.48
2022-08-17T18:33:51.456Z,20.33
2022-08-17T18:35:58.766Z,20.08
2022-08-17T18:38:20.339Z,21.00
2022-08-17T18:40:27.573Z,20.90
2022-08-17T18:42:29.472Z,21.38
2022-08-17T18:44:43.552Z,20.17
2022-08-17T18:46:45.466Z,21.23
2022-08-17T18:48:54.068Z,21.40
2022-08-17T18:51:01.571Z,22.33
2022-08-17T18:53:26.673Z,21.90
2022-08-17T18:55:32.438Z,21.95
2022-08-17T18:57:34.991Z,21.85
2022-08-17T19:01:53.347Z,21.33
2022-08-17T19:03:59.252Z,22.65
2022-08-17T19:06:23.352Z,24.67
2022-08-17T19:08:27.795Z,23.10
2022-08-17T19:10:46.315Z,23.50
2022-08-17T19:12:51.739Z,22.50
2022-08-17T19:14:55.318Z,22.00
2022-08-17T19:17:03.863Z,22.23
2022-08-17T19:19:14.478Z,21.73
2022-08-17T19:21:25.325Z,21.98
2022-08-17T19:23:41.876Z,23.73
2022-08-17T19:25:58.560Z,22.52
2022-08-17T19:28:21.476Z,22.33
2022-08-17T19:30:23.549Z,21.23
2022-08-17T19:32:26.424Z,22.40
2022-08-17T19:36:38.192Z,22.65
2022-08-17T19:38:54.463Z,22.23
2022-08-17T19:41:00.563Z,22.73
2022-08-17T19:43:06.258Z,23.23
2022-08-17T19:45:07.870Z,22.85
2022-08-17T19:47:26.147Z,23.23
2022-08-17T19:49:46.637Z,23.23
2022-08-17T19:51:57.924Z,23.80
2022-08-17T19:54:06.045Z,24.88
2022-08-17T19:56:12.205Z,24.00
2022-08-17T19:58:22.417Z,23.27
2022-08-17T20:00:25.250Z,23.30
2022-08-17T20:02:31.267Z,24.60
2022-08-17T20:04:39.475Z,24.20
2022-08-17T20:06:43.910Z,23.73
2022-08-17T20:08:51.927Z,23.00
2022-08-17T20:10:57.298Z,24.38
2022-08-17T20:13:03.081Z,25.13
2022-08-17T20:15:04.586Z,23.25
2022-08-17T20:17:06.517Z,23.38
2022-08-17T20:19:11.362Z,23.20
2022-08-17T20:21:23.845Z,23.48
2022-08-17T20:23:28.589Z,22.90
2022-08-17T20:25:41.621Z,23.15
2022-08-17T20:30:03.241Z,22.65
2022-08-17T20:32:06.963Z,22.67
2022-08-17T20:34:23.855Z,23.02
2022-08-17T20:36:36.765Z,23.25
2022-08-17T20:38:43.665Z,23.45
2022-08-17T20:40:54.679Z,24.02
2022-08-17T20:42:58.600Z,24.10
2022-08-17T20:45:04.714Z,24.98
2022-08-17T20:47:12.216Z,24.90
2022-08-17T20:49:31.315Z,23.80
2022-08-17T20:51:34.780Z,24.52
2022-08-17T20:53:53.334Z,22.83
2022-08-17T20:55:55.553Z,23.83
2022-08-17T20:57:57.177Z,23.10
2022-08-17T20:59:58.668Z,24.13
2022-08-17T21:02:12.480Z,23.35
2022-08-17T21:04:39.462Z,23.40
2022-08-17T21:07:00.929Z,22.90
2022-08-17T21:09:21.408Z,24.48
2022-08-17T21:11:58.199Z,24.13
2022-08-17T21:14:12.951Z,23.65
2022-08-17T21:16:20.588Z,23.33
2022-08-17T21:18:41.276Z,23.38
2022-08-17T21:21:01.142Z,24.38
2022-08-17T21:23:17.123Z,24.75
2022-08-17T21:25:24.771Z,23.83
2022-08-17T21:27:45.243Z,24.10
2022-08-17T21:30:10.183Z,23.88
2022-08-17T21:32:19.004Z,25.48
2022-08-17T21:34:20.909Z,24.48
2022-08-17T21:36:23.779Z,24.35
2022-08-17T21:38:36.203Z,24.15
2022-08-17T21:40:37.687Z,23.67
2022-08-17T21:42:44.781Z,23.80
2022-08-17T21:44:50.661Z,24.35
2022-08-17T21:46:53.159Z,25.27
2022-08-17T21:48:57.356Z,25.20
2022-08-17T21:51:06.426Z,26.10
2022-08-17T21:53:11.751Z,22.73
2022-08-17T21:55:22.065Z,22.80
2022-08-17T21:57:27.415Z,21.98
2022-08-17T21:59:32.016Z,22.77
2022-08-17T22:01:35.345Z,22.27
2022-08-17T22:03:38.464Z,22.52
2022-08-17T22:05:40.207Z,23.60
2022-08-17T22:07:50.647Z,23.67
2022-08-17T22:09:52.204Z,23.63
2022-08-17T22:12:03.594Z,22.75
2022-08-17T22:14:15.775Z,23.75
2022-08-17T22:16:28.440Z,23.75
2022-08-17T22:18:31.691Z,23.00
2022-08-17T22:20:33.444Z,23.27
2022-08-17T22:22:59.151Z,22.75
2022-08-17T22:25:07.184Z,24.05
2022-08-17T22:27:11.454Z,23.70
2022-08-17T22:29:31.675Z,25.00
2022-08-17T22:31:52.570Z,23.27
2022-08-17T22:34:00.270Z,23.60
2022-08-17T22:36:24.405Z,24.55
2022-08-17T22:38:28.122Z,24.67
2022-08-17T22:40:34.343Z,23.98
2022-08-17T22:42:46.891Z,23.88
2022-08-17T22:44:49.304Z,24.73
2022-08-17T22:47:00.198Z,25.15
2022-08-17T22:49:01.761Z,26.63
2022-08-17T22:51:12.458Z,25.30
2022-08-17T22:53:35.933Z,25.33
2022-08-17T22:55:56.827Z,24.23
2022-08-17T22:58:17.079Z,24.73
2022-08-17T23:00:37.597Z,24.55
2022-08-17T23:02:49.941Z,25.73
2022-08-17T23:05:17.293Z,25.67
2022-08-17T23:07:19.951Z,26.40
2022-08-17T23:09:21.737Z,28.75
2022-08-17T23:11:36.902Z,28.75
2022-08-17T23:13:49.360Z,27.80
2022-08-17T23:15:51.044Z,28.73
2022-08-17T23:17:52.619Z,28.20
2022-08-17T23:19:55.603Z,28.48
2022-08-17T23:21:57.707Z,28.75
2022-08-17T23:23:59.231Z,27.80
2022-08-17T23:26:01.467Z,28.58
2022-08-17T23:28:04.624Z,29.45
2022-08-17T23:30:06.578Z,28.98
2022-08-17T23:32:10.979Z,30.25
2022-08-17T23:34:13.908Z,30.52
2022-08-17T23:36:17.092Z,29.33
2022-08-17T23:38:18.769Z,28.92
2022-08-17T23:40:20.269Z,29.08
2022-08-17T23:42:21.806Z,30.42
2022-08-17T23:44:23.484Z,28.88
2022-08-17T23:46:25.169Z,28.27
2022-08-17T23:48:35.084Z,28.95
2022-08-17T23:50:39.191Z,30.33
2022-08-17T23:52:42.912Z,30.05
2022-08-17T23:54:46.400Z,29.08
2022-08-17T23:56:48.167Z,28.90
2022-08-17T23:58:49.776Z,28.75
